Nearby METAR Reports

 

KAFF - US Air Force Academy
Distance from station: W 3mi, 4km
Updated: Sun, Aug-14-2022 6:58am MDT
Clear
Clear
 Wind from N
Wind: N 6 mph , 9 km/h
Temperature: 59°F , 15°C
Dew Point: 48°F , 9°C
Humidity: 68%
Barometer: 30.24 inHg , 1024 hPa
Clouds: Clear
Visibility: 10 miles , 16 km
2022/08/14 12:58 KAFF 141258Z 35005KT 10SM CLR 15/09 A3024 RMK AO2A SLP147 T01520093
KCOS - Colorado Springs Municipal
Distance from station: SSE 11mi, 18km
Updated: Sun, Aug-14-2022 6:54am MDT
Partly cloudy
Partly cloudy
 Wind from N
Wind: N 9 mph , 15 km/h
Temperature: 66°F , 19°C
Dew Point: 48°F , 9°C
Humidity: 52%
Barometer: 30.24 inHg , 1024 hPa
Clouds: Partly cloudy
Visibility: 10 miles , 16 km
Cloud details: Partly cloudy 25000 ft
2022/08/14 12:54 KCOS 141254Z 36008KT 10SM SCT250 19/09 A3024 RMK AO2 SLP142 T01890089
 
KFLY - Colorado Springs Meadow
Distance from station: E 11mi, 18km
Updated: Sun, Aug-14-2022 7:15am MDT
Clear
Clear
 Wind from NNW
Wind: NNW 8 mph , 13 km/h
Temperature: 66°F , 19°C
Dew Point: 46°F , 8°C
Humidity: 49%
Barometer: 30.30 inHg , 1026.1 hPa
Clouds: Clear
Visibility: 10 miles , 16 km
2022/08/14 13:15 KFLY 141315Z AUTO 33007KT 290V360 10SM CLR 19/08 A3030 RMK AO2 T01890082
KCWN - Cheyenne Mountain
Distance from station: SSW 15mi, 24km
Updated: Tue, Jun-28-2022 12:58am MDT
NOT Current
Partly cloudy
Partly cloudy
 Wind from W
Wind: W 5 mph , 7 km/h
Temperature: 57°F , 14°C
Dew Point: 50°F , 10°C
Humidity: 77%
Barometer: 30.32 inHg , 1026.8 hPa
Clouds: Partly cloudy
Visibility: 10 miles , 16 km
Cloud details: Partly cloudy 18000 ft
2022/06/28 06:58 KCWN 280658Z AUTO 28004KT 10SM SCT180 14/10 A3032 RMK AO2 SLP107 T01430097 402100101 $
 
KMNH - Monument/Elbert
Distance from station: NNE 19mi, 30km
Updated: Sun, Aug-14-2022 7:15am MDT
Clear
Clear
 Wind from SW
Wind: SW 5 mph , 7 km/h
Temperature: 63°F , 17°C
Dew Point: 46°F , 8°C
Humidity: 56%
Barometer: 30.32 inHg , 1026.8 hPa
Clouds: Clear
Visibility: 10 miles , 16 km
2022/08/14 13:15 KMNH 141315Z AUTO 22004KT 10SM CLR 17/08 A3032 RMK AO2
KFCS - Fort Carson
Distance from station: S 20mi, 33km
Updated: Sun, Aug-14-2022 6:58am MDT
Clear
Clear
 Wind from NNW
Wind: NNW 13 mph , 20 km/h
Temperature: 66°F , 19°C
Dew Point: 48°F , 9°C
Humidity: 52%
Barometer: 30.18 inHg , 1022 hPa
Clouds: Clear
Visibility: 10 miles , 16 km
2022/08/14 12:58 KFCS 141258Z AUTO 34011KT 10SM CLR 19/09 A3018 RMK AO2 SLP154 T01850085 $
 
KABH - Ellicot
Distance from station: ESE 29mi, 46km
Updated: Sun, Aug-14-2022 6:58am MDT
Clear
Clear
 Wind from E
Wind: E 3 mph , 6 km/h
Temperature: 61°F , 16°C
Dew Point: 50°F , 10°C
Humidity: 68%
Barometer: 30.24 inHg , 1024 hPa
Clouds: Clear
Visibility: 10 miles , 16 km
2022/08/14 12:58 KABH 141258Z AUTO 10003KT 10SM CLR 16/10 A3024 RMK AO2 SLP160 T01580099
K1V6 - Canon City
Distance from station: SSW 41mi, 65km
Updated: Sun, Aug-14-2022 7:15am MDT
Clear
Clear
 Wind from W
Wind: W 14 mph , 22 km/h
Temperature: 72°F , 22°C
Dew Point: 50°F , 10°C
Humidity: 47%
Barometer: 30.17 inHg , 1021.7 hPa
Clouds: Clear
Visibility: 10 miles , 16 km
2022/08/14 13:15 K1V6 141315Z AUTO 28012KT 10SM CLR 22/10 A3017 RMK AO2
 
K4BM - Wilkerson Pass
Distance from station: W 41mi, 65km
Updated: Sun, Aug-14-2022 7:15am MDT
Clear
Clear
 Wind from SSW
Wind: SSW 7 mph , 11 km/h
Temperature: 52°F , 11°C
Dew Point: 37°F , 3°C
Humidity: 58%
Barometer: 30.67 inHg , 1038.6 hPa
Clouds: Clear
Visibility: 10 miles , 16 km
2022/08/14 13:15 K4BM 141315Z AUTO 21006KT 10SM CLR 11/03 A3067 RMK AO2
KAPA - Denver/Arapahoe
Distance from station: N 42mi, 68km
Updated: Sun, Aug-14-2022 6:53am MDT
Few Clouds
Few Clouds
 Wind from W
Wind: W 8 mph , 13 km/h
Temperature: 66°F , 19°C
Dew Point: 52°F , 11°C
Humidity: 60%
Barometer: 30.22 inHg , 1023.4 hPa
Clouds: Few Clouds
Visibility: 10 miles , 16 km
Cloud details: Few Clouds 10000 ft
Few Clouds 14000 ft
Few Clouds 22000 ft
2022/08/14 12:53 KAPA 141253Z 26007KT 10SM FEW100 FEW140 FEW220 19/11 A3022 RMK AO2 SLP159 T01890111
 
KPUB - Pueblo
Distance from station: SSE 49mi, 79km
Updated: Sun, Aug-14-2022 6:53am MDT
Clear
Clear
 Wind from W
Wind: W 7 mph , 11 km/h
Temperature: 68°F , 20°C
Dew Point: 52°F , 11°C
Humidity: 56%
Barometer: 30.12 inHg , 1020 hPa
Clouds: Clear
Visibility: 10 miles , 16 km
2022/08/14 12:53 KPUB 141253Z 27006KT 10SM CLR 20/11 A3012 RMK AO2 SLP123 T02000106